Flight Track Log - Related Links

Times and Time Zones

All times are in EDT time to prevent confusion due to time zone crossing. See the JBU51 flight status page for this flight to view local times or setup timezone preferences in your user account.


Time Position Orientation Groundspeed Altitude Reporting Facility
EDT Latitude Longitude Course Direction KTS MPH feet Rate Location/Type
Tue 06:29:58 AM 42.3142 -70.9068 76° East 284 327 4,200  Level FlightAware ADS-B (KASH)
Tue 06:30:15 AM 42.3198 -70.8775 76° East 282 325 5,300 3,639 Climbing FlightAware ADS-B (KASH)
Tue 06:30:59 AM 42.3307 -70.8006 86° East 285 328 7,900 3,400 Climbing FlightAware ADS-B (KASH)
Tue 06:31:15 AM 42.3247 -70.7733 113° Southeast 295 339 8,700 2,694 Climbing FlightAware ADS-B (KASH)
Tue 06:31:48 AM 42.3058 -70.7180 116° Southeast 307 353 10,100 2,036 Climbing FlightAware ADS-B (KASH)
Tue 06:32:11 AM 42.2842 -70.6814 145° Southeast 339 390 10,600 1,091 Climbing FlightAware ADS-B (KASH)
Tue 06:32:21 AM 42.2707 -70.6719 158° South 348 400 10,700 1,277 Climbing FlightAware ADS-B (KASH)
Tue 06:32:58 AM 42.2104 -70.6452 162° South 373 429 11,600 2,294 Climbing FlightAware ADS-B (KASH)
Tue 06:33:29 AM 42.1584 -70.6228 164° South 372 428 13,300 3,000 Climbing FlightAware ADS-B (KASH)
Tue 06:33:42 AM 42.1362 -70.6198 182° South 371 427 13,800 2,129 Climbing FlightAware ADS-B (KASH)
Tue 06:34:00 AM 42.1075 -70.6271 197° South 372 428 14,400 2,182 Climbing FlightAware ADS-B (KASH)
Tue 06:34:04 AM 42.1008 -70.6300 199° South 372 428 14,600 2,595 Climbing FlightAware ADS-B (KASH)
Tue 06:34:37 AM 42.0469 -70.6541 199° South 373 429 16,000 2,381 Climbing FlightAware ADS-B
Tue 06:35:07 AM 41.9973 -70.6762 198° South 377 434 17,100 2,043 Climbing FlightAware ADS-B
Tue 06:36:11 AM 41.8885 -70.7240 198° South 391 450 19,200 2,022 Climbing FlightAware ADS-B (KASH)
Tue 06:36:39 AM 41.8405 -70.7458 200° South 393 452 20,200 1,895 Climbing FlightAware ADS-B (KASH)
Tue 06:37:27 AM 41.7634 -70.8017 208° Southwest 386 444 21,600 1,443 Climbing FlightAware ADS-B (KASH)
Tue 06:37:58 AM 41.7123 -70.8406 209° Southwest 411 473 22,100 1,183 Climbing FlightAware ADS-B (KASH)
Tue 06:38:38 AM 41.6495 -70.8875 209° Southwest 422 486 23,000 1,263 Climbing FlightAware ADS-B
Tue 06:39:14 AM 41.5856 -70.9390 213° Southwest 424 488 23,700 1,364 Climbing FlightAware ADS-B
Tue 06:39:44 AM 41.5430 -70.9829 221° Southwest 423 487 24,500 1,161 Climbing FlightAware ADS-B
Tue 06:40:16 AM 41.4997 -71.0400 229° Southwest 431 496 24,900 1,143 Climbing FlightAware ADS-B
Tue 06:40:47 AM 41.4563 -71.1104 232° Southwest 425 489 25,700 2,233 Climbing FlightAware ADS-B (KASH)
Tue 06:40:59 AM 41.4698 -71.0879 231° Southwest 427 491 26,500 1,200 Climbing FlightAware ADS-B
Tue 06:41:32 AM 41.4002 -71.2020 231° Southwest 436 502 26,600 381 Climbing FlightAware ADS-B (KASH)
Tue 06:42:02 AM 41.3603 -71.2667 231° Southwest 444 511 26,900 955 Climbing FlightAware ADS-B (KASH)
Tue 06:42:16 AM 41.3538 -71.2771 231° Southwest 450 518 27,300 1,200 Climbing FlightAware ADS-B
Tue 06:42:47 AM 41.3015 -71.3615 231° Southwest 454 522 27,800 1,130 Climbing FlightAware ADS-B (KASH)
Tue 06:43:25 AM 41.2563 -71.4342 231° Southwest 457 526 28,600 1,200 Climbing FlightAware ADS-B (KSNC)
Tue 06:43:57 AM 41.2077 -71.5128 232° Southwest 459 528 29,200 1,159 Climbing FlightAware ADS-B
Tue 06:44:53 AM 41.1493 -71.6324 242° Southwest 451 519 30,300 1,200 Climbing FlightAware ADS-B (KSNC)
Tue 06:45:27 AM 41.1192 -71.7207 247° West 448 516 31,000 1,154 Climbing FlightAware ADS-B
Tue 06:46:11 AM 41.0777 -71.8290 232° Southwest 459 528 31,800 1,038 Climbing FlightAware ADS-B (KSNC)
Tue 06:47:11 AM 40.9865 -71.9654 228° Southwest 467 537 32,800 1,286 Climbing FlightAware ADS-B (KSNC)
Tue 06:47:49 AM 40.9368 -72.0389 228° Southwest 456 525 33,900 1,684 Climbing FlightAware ADS-B (KSNC)
Tue 06:48:08 AM 40.9076 -72.0821 229° Southwest 447 514 34,400 1,111 Climbing FlightAware ADS-B (KWWD)
Tue 06:48:43 AM 40.8580 -72.1555 228° Southwest 453 521 34,900 894 Climbing FlightAware ADS-B (KSNC)
Tue 06:48:55 AM 40.8419 -72.1792 229° Southwest 448 516 35,100 1,021 Climbing FlightAware ADS-B (KWWD)
Tue 06:49:30 AM 40.7955 -72.2474 229° Southwest 446 513 35,700 750 Climbing FlightAware ADS-B (KWWD)
Tue 06:50:07 AM 40.7406 -72.3277 228° Southwest 448 516 36,000 243 Climbing FlightAware ADS-B (KSNC)
Tue 06:50:44 AM 40.6932 -72.3970 228° Southwest 447 514 36,000  Level FlightAware ADS-B (KSNC)
Tue 06:50:51 AM 40.6806 -72.4156 229° Southwest 443 510 36,000  Level FlightAware ADS-B (KWWD)
Tue 06:51:15 AM 40.6478 -72.4636 229° Southwest 443 510 36,000  Level FlightAware ADS-B (KWWD)
Tue 06:51:28 AM 40.6288 -72.4912 229° Southwest 442 509 36,000  Level FlightAware ADS-B (KWWD)
Tue 06:51:52 AM 40.5957 -72.5394 229° Southwest 443 510 36,000  Level FlightAware ADS-B (KWWD)
Tue 06:52:04 AM 40.5792 -72.5635 229° Southwest 444 511 36,000  Level FlightAware ADS-B (KWWD)
Tue 06:52:16 AM 40.5628 -72.5873 229° Southwest 444 511 36,000  Level FlightAware ADS-B (KWWD)
Tue 06:52:47 AM 40.5194 -72.6502 228° Southwest 449 517 36,000  Level FlightAware ADS-B (KSNC)
Tue 06:53:27 AM 40.4633 -72.7316 229° Southwest 444 511 36,000 82 Level FlightAware ADS-B (KWWD)
Tue 06:54:00 AM 40.4182 -72.7967 228° Southwest 447 514 36,100  Climbing FlightAware ADS-B (KSNC)
Tue 06:54:31 AM 40.3748 -72.8589 228° Southwest 446 513 36,000 -92 Descending FlightAware ADS-B (KSNC)
Tue 06:55:05 AM 40.3278 -72.9265 229° Southwest 439 505 36,000  Level FlightAware ADS-B (KWWD)
Tue 06:55:16 AM 40.3120 -72.9493 229° Southwest 439 505 36,000  Level FlightAware ADS-B (KWWD)
Tue 06:55:23 AM 40.3022 -72.9633 229° Southwest 439 505 36,000  Level FlightAware ADS-B (KWWD)
Tue 06:55:56 AM 40.2568 -73.0284 229° Southwest 439 505 36,000  Level FlightAware ADS-B (KWWD)
Tue 06:56:26 AM 40.2149 -73.0886 228° Southwest 440 506 36,000  Level FlightAware ADS-B (KWWD)
Tue 06:56:57 AM 40.1727 -73.1487 228° Southwest 441 507 36,000  Level FlightAware ADS-B (KWWD)
Tue 06:57:29 AM 40.1319 -73.2068 227° Southwest 448 516 36,000  Level FlightAware ADS-B (KPHL)
Tue 06:57:57 AM 40.0874 -73.2671 222° Southwest 453 521 36,000  Level FlightAware ADS-B (KPHL)
Tue 06:58:22 AM 40.0566 -73.3016 221° Southwest 454 522 36,000  Level FlightAware ADS-B (KPHL)
Tue 06:58:54 AM 39.9961 -73.3700 221° Southwest 454 522 36,000  Level FlightAware ADS-B (KWWD)
Tue 06:59:24 AM 39.9491 -73.4232 222° Southwest 449 517 36,000  Level FlightAware ADS-B (KWWD)
Tue 06:59:56 AM 39.8975 -73.4811 221° Southwest 449 517 36,000  Level FlightAware ADS-B (KWWD)
Tue 07:00:32 AM 39.8407 -73.5446 221° Southwest 455 524 36,000  Level FlightAware ADS-B (KPHL)
Tue 07:01:09 AM 39.7825 -73.6093 221° Southwest 455 524 36,000  Level FlightAware ADS-B (KSNC)
Tue 07:01:40 AM 39.7325 -73.6648 221° Southwest 453 521 36,000  Level FlightAware ADS-B (KSNC)
Tue 07:02:11 AM 39.6900 -73.7118 220° Southwest 453 521 36,000  Level FlightAware ADS-B (KSNC)
Tue 07:02:44 AM 39.6508 -73.7550 220° Southwest 453 521 36,000  Level FlightAware ADS-B (KSNC)
Tue 07:03:17 AM 39.5758 -73.8339 216° Southwest 456 525 36,000  Level FlightAware ADS-B (KWWD)
Tue 07:03:47 AM 39.5246 -73.8811 216° Southwest 456 525 36,000 98 Level FlightAware ADS-B (KWWD)
Tue 07:04:18 AM 39.4727 -73.9296 217° Southwest 446 513 36,100 120 Climbing FlightAware ADS-B (KWWD)
Tue 07:04:37 AM 39.4568 -73.9445 216° Southwest 451 519 36,100 -222 Level FlightAware ADS-B (KSNC)
Tue 07:04:45 AM 39.4357 -73.9644 216° Southwest 451 519 36,000 -143 Descending FlightAware ADS-B (KSNC)
Tue 07:05:19 AM 39.3696 -74.0267 216° Southwest 450 518 36,000  Level FlightAware ADS-B (KSNC)
Tue 07:05:29 AM 39.3529 -74.0425 216° Southwest 449 517 36,000  Level FlightAware ADS-B (KSNC)
Tue 07:05:56 AM 39.3428 -74.0520 216° Southwest 450 518 36,000  Level FlightAware ADS-B (KSNC)
Tue 07:06:31 AM 39.2492 -74.1404 216° Southwest 449 517 36,000  Level FlightAware ADS-B (KPHL)
Tue 07:06:48 AM 39.2203 -74.1677 216° Southwest 449 517 36,000  Level FlightAware ADS-B (KPHL)
Tue 07:07:19 AM 39.1698 -74.2151 216° Southwest 451 519 36,000  Level FlightAware ADS-B (KPHL)
Tue 07:07:49 AM 39.1183 -74.2633 217° Southwest 445 512 36,000  Level FlightAware ADS-B (KWWD)
Tue 07:08:03 AM 39.0934 -74.2865 217° Southwest 445 512 36,000  Level FlightAware ADS-B (KWWD)
Tue 07:08:51 AM 39.0124 -74.3623 216° Southwest 452 520 36,000  Level FlightAware ADS-B (KPHL)
Tue 07:09:27 AM 38.9518 -74.4188 217° Southwest 446 513 36,000  Level FlightAware ADS-B (KWWD)
Tue 07:09:58 AM 38.8993 -74.4677 216° Southwest 453 521 36,000  Level FlightAware ADS-B (KWWD)
Tue 07:10:48 AM 38.8141 -74.5465 216° Southwest 454 522 36,000  Level FlightAware ADS-B (KWWD)
Tue 07:11:44 AM 38.9084 -74.4592 216° Southwest 453 521 36,000  Level FlightAware ADS-B (EGAA / BFS)
Tue 07:13:19 AM 38.5577 -74.7831 216° Southwest 451 519 36,000  Level FlightAware ADS-B (KPHL)
Tue 07:14:22 AM 38.4547 -74.8776 216° Southwest 450 518 36,000  Level FlightAware ADS-B (KPHL)
Tue 07:14:58 AM 38.3912 -74.9355 216° Southwest 444 511 36,000  Level FlightAware ADS-B (KWWD)
Tue 07:15:38 AM 38.3714 -74.9535 216° Southwest 450 518 36,000  Level FlightAware ADS-B (EGAA / BFS)
Tue 07:16:09 AM 38.2712 -75.0449 216° Southwest 441 507 36,000  Level FlightAware ADS-B (KWWD)
Tue 07:16:48 AM 38.2077 -75.1027 216° Southwest 448 516 36,000  Level FlightAware ADS-B (EGAA / BFS)
Tue 07:17:18 AM 38.1563 -75.1493 216° Southwest 449 517 36,000  Level FlightAware ADS-B (EGAA / BFS)
Tue 07:17:59 AM 38.1122 -75.1891 216° Southwest 451 519 36,000  Level FlightAware ADS-B (EGAA / BFS)
Tue 07:18:30 AM 38.0383 -75.2558 216° Southwest 451 519 36,000  Level FlightAware ADS-B (EGAA / BFS)
Tue 07:19:09 AM 37.9680 -75.3191 216° Southwest 451 519 36,000  Level FlightAware ADS-B (EGAA / BFS)
Tue 07:19:39 AM 37.9187 -75.3635 215° Southwest 450 518 36,000 130 Level FlightAware ADS-B (EGAA / BFS)
Tue 07:19:55 AM 37.8894 -75.3897 216° Southwest 443 510 36,100 214 Climbing FlightAware ADS-B (KWWD)
Tue 07:20:07 AM 37.8678 -75.4091 216° Southwest 441 507 36,100  Level FlightAware ADS-B (KWWD)
Tue 07:20:19 AM 37.8508 -75.4243 215° Southwest 446 513 36,100 -115 Level FlightAware ADS-B (EGAA / BFS)
Tue 07:20:59 AM 37.7873 -75.4811 215° Southwest 446 513 36,000 -83 Descending FlightAware ADS-B (EGAA / BFS)
Tue 07:21:31 AM 37.7289 -75.5333 215° Southwest 445 512 36,000  Level FlightAware ADS-B (EGAA / BFS)
Tue 07:22:08 AM 37.6648 -75.5905 216° Southwest 438 504 36,000  Level FlightAware ADS-B (KWWD)
Tue 07:22:49 AM 37.5967 -75.6511 216° Southwest 438 504 36,000  Level FlightAware ADS-B (KWWD)
Tue 07:23:19 AM 37.5451 -75.6969 216° Southwest 438 504 36,000  Level FlightAware ADS-B (KWWD)
Tue 07:23:59 AM 37.4797 -75.7548 216° Southwest 436 502 36,000  Level FlightAware ADS-B (KWWD)
Tue 07:24:29 AM 37.4286 -75.7999 216° Southwest 435 501 36,000  Level FlightAware ADS-B (KWWD)
Tue 07:24:59 AM 37.3792 -75.8435 216° Southwest 434 499 36,000  Level FlightAware ADS-B (KWWD)
Tue 07:25:34 AM 37.3200 -75.8957 216° Southwest 432 497 36,000  Level FlightAware ADS-B (KWWD)
Tue 07:26:17 AM 37.2497 -75.9575 215° Southwest 436 502 36,000  Level FlightAware ADS-B (KWWD)
Tue 07:26:58 AM 37.1821 -76.0169 215° Southwest 435 501 36,000  Level FlightAware ADS-B (KWWD)
Tue 07:27:28 AM 37.1313 -76.0614 215° Southwest 434 499 36,000  Level FlightAware ADS-B (KWWD)
Tue 07:27:58 AM 37.0822 -76.1043 215° Southwest 434 499 36,000  Level FlightAware ADS-B (KWWD)
Tue 07:28:35 AM 37.0219 -76.1569 215° Southwest 434 499 36,000  Level FlightAware ADS-B (KWWD)
Tue 07:30:47 AM 36.8038 -76.3462 215° Southwest 435 501 36,000  Level FlightAware ADS-B (KWWD)
Tue 07:31:17 AM 36.7548 -76.3886 215° Southwest 435 501 36,000  Level FlightAware ADS-B (KWWD)
Tue 07:32:28 AM 36.5996 -76.5224 215° Southwest 436 502 36,000  Level FlightAware ADS-B
Tue 07:33:10 AM 36.5282 -76.5837 215° Southwest 436 502 36,000  Level FlightAware ADS-B
Tue 07:33:59 AM 36.4476 -76.6527 215° Southwest 436 502 36,000  Level FlightAware ADS-B
Tue 07:34:29 AM 36.3973 -76.6957 215° Southwest 436 502 36,000  Level FlightAware ADS-B
Tue 07:35:13 AM 36.3286 -76.7608 220° Southwest 437 503 36,000  Level FlightAware ADS-B
Tue 07:35:58 AM 36.2593 -76.8330 220° Southwest 437 503 36,000  Level FlightAware ADS-B
Tue 07:36:28 AM 36.2114 -76.8816 219° Southwest 436 502 36,000  Level FlightAware ADS-B
Tue 07:36:58 AM 36.1659 -76.9271 219° Southwest 437 503 36,000  Level FlightAware ADS-B
Tue 07:37:43 AM 36.0931 -77.0000 219° Southwest 436 502 36,000  Level FlightAware ADS-B
Tue 07:38:48 AM 36.0303 -77.0628 219° Southwest 436 502 36,000  Level FlightAware ADS-B (KWWD)
Tue 07:39:28 AM 35.9384 -77.1542 219° Southwest 439 505 36,000  Level FlightAware ADS-B
Tue 07:39:59 AM 35.8872 -77.2052 219° Southwest 440 506 36,000  Level FlightAware ADS-B
Tue 07:40:42 AM 35.8109 -77.2806 219° Southwest 442 509 36,000  Level FlightAware ADS-B
Tue 07:41:45 AM 35.7113 -77.3790 219° Southwest 442 509 36,000  Level FlightAware ADS-B
Tue 07:42:29 AM 35.6403 -77.4490 219° Southwest 441 507 36,000  Level FlightAware ADS-B
Tue 07:43:12 AM 35.5725 -77.5158 219° Southwest 441 507 36,000  Level FlightAware ADS-B
Tue 07:43:59 AM 35.5049 -77.5821 219° Southwest 440 506 36,000  Level FlightAware ADS-B
Tue 07:44:43 AM 35.4270 -77.6583 219° Southwest 439 505 36,000  Level FlightAware ADS-B
Tue 07:47:11 AM 35.1972 -77.8821 219° Southwest 440 506 36,000  Level FlightAware ADS-B
Tue 07:47:43 AM 35.1412 -77.9365 219° Southwest 440 506 36,000  Level FlightAware ADS-B
Tue 07:48:14 AM 35.0950 -77.9812 219° Southwest 441 507 36,000  Level FlightAware ADS-B
Tue 07:48:44 AM 35.0533 -78.0213 219° Southwest 441 507 36,000  Level FlightAware ADS-B
Tue 07:49:15 AM 34.9957 -78.0770 219° Southwest 442 509 36,000  Level FlightAware ADS-B
Tue 07:49:57 AM 34.9269 -78.1432 218° Southwest 443 510 36,000  Level FlightAware ADS-B
Tue 07:50:32 AM 34.9063 -78.1631 218° Southwest 442 509 36,000  Level FlightAware ADS-B (YGEH)
Tue 07:51:13 AM 34.8397 -78.2271 218° Southwest 443 510 36,000  Level FlightAware ADS-B (YGEH)
Tue 07:53:12 AM 34.9114 -78.1581 218° Southwest 442 509 36,000  Level FlightAware ADS-B
Tue 07:55:43 AM 34.4041 -78.6419 218° Southwest 448 516 36,000  Level FlightAware ADS-B
Tue 07:56:53 AM 34.2900 -78.7497 218° Southwest 447 514 36,000  Level FlightAware ADS-B
Tue 07:57:30 AM 34.2287 -78.8074 218° Southwest 448 516 36,000  Level FlightAware ADS-B
Tue 07:58:13 AM 34.1611 -78.8709 218° Southwest 448 516 36,000  Level FlightAware ADS-B
Tue 07:59:53 AM 33.9963 -79.0253 218° Southwest 450 518 36,000  Level FlightAware ADS-B
Tue 08:01:21 AM 33.8542 -79.1589 218° Southwest 456 525 36,000  Level Jacksonville Center
Tue 08:02:21 AM 33.7547 -79.2506 217° Southwest 456 525 36,000 -50 Level Jacksonville Center
Tue 08:03:21 AM 33.6631 -79.3342 217° Southwest 446 513 35,900  Descending Jacksonville Center
Tue 08:04:21 AM 33.5636 -79.4281 218° Southwest 441 507 36,000 50 Climbing Jacksonville Center
Tue 08:05:21 AM 33.4636 -79.5192 217° Southwest 446 513 36,000  Level Jacksonville Center
Tue 08:06:21 AM 33.3658 -79.6097 218° Southwest 451 519 36,000  Level Jacksonville Center
Tue 08:07:21 AM 33.2661 -79.7003 217° Southwest 456 525 36,000  Level Jacksonville Center
Tue 08:08:21 AM 33.1658 -79.7908 217° Southwest 456 525 36,000  Level Jacksonville Center
Tue 08:09:21 AM 33.0617 -79.8811 216° Southwest 456 525 36,000  Level Jacksonville Center
Tue 08:10:21 AM 32.9617 -79.9711 217° Southwest 456 525 36,000  Level Jacksonville Center
Tue 08:11:21 AM 32.8550 -80.0611 215° Southwest 461 531 36,000  Level Jacksonville Center
Tue 08:12:21 AM 32.7628 -80.1358 214° Southwest 461 531 36,000 -50 Level Jacksonville Center
Tue 08:13:21 AM 32.6517 -80.2156 211° Southwest 461 531 35,900  Descending Jacksonville Center
Tue 08:14:21 AM 32.5469 -80.2950 213° Southwest 461 531 36,000  Climbing Jacksonville Center
Tue 08:15:21 AM 32.4400 -80.3719 211° Southwest 456 525 35,900  Descending Jacksonville Center
Tue 08:16:21 AM 32.3331 -80.4511 212° Southwest 456 525 36,000 50 Climbing Jacksonville Center
Tue 08:17:21 AM 32.2258 -80.5278 211° Southwest 456 525 36,000  Level Jacksonville Center
Tue 08:18:21 AM 32.1100 -80.5869 203° Southwest 451 519 36,000  Level Jacksonville Center
Tue 08:19:21 AM 31.9708 -80.6247 193° South 467 537 36,000  Level Jacksonville Center
Tue 08:20:21 AM 31.8419 -80.6500 189° South 472 543 36,000  Level Jacksonville Center
Tue 08:21:21 AM 31.7275 -80.6722 189° South 467 537 36,000  Level Jacksonville Center
Tue 08:22:21 AM 31.5839 -80.6978 189° South 462 532 36,000  Level Jacksonville Center
Tue 08:23:21 AM 31.4611 -80.7200 189° South 468 539 36,000  Level Jacksonville Center
Tue 08:24:21 AM 31.3342 -80.7450 190° South 467 537 36,000 -250 Level Jacksonville Center
Tue 08:25:21 AM 31.2031 -80.7672 188° South 467 537 35,500 -700 Descending Jacksonville Center
Tue 08:26:21 AM 31.0781 -80.7919 190° South 467 537 34,600 -750 Descending Jacksonville Center
Tue 08:27:21 AM 30.9511 -80.8142 189° South 467 537 34,000 -300 Descending Jacksonville Center
Tue 08:28:21 AM 30.8261 -80.8386 190° South 467 537 34,000  Level Jacksonville Center
Tue 08:29:21 AM 30.6972 -80.8608 188° South 467 537 34,000  Level Jacksonville Center
Tue 08:30:21 AM 30.5744 -80.8850 190° South 461 531 34,000  Level Jacksonville Center
Tue 08:31:21 AM 30.4472 -80.9072 189° South 461 531 34,000 -100 Level Jacksonville Center
Tue 08:32:21 AM 30.3203 -80.9289 188° South 466 536 33,800 -1,902 Descending Jacksonville Center
Tue 08:38:11 AM 29.5818 -81.0319 185° South 436 502 21,000 -2,283 Descending FlightAware ADS-B
Tue 08:39:11 AM 29.4560 -81.0446 185° South 413 475 18,200 -2,516 Descending FlightAware ADS-B
Tue 08:39:44 AM 29.3971 -81.0507 185° South 408 470 17,100 -2,424 Descending FlightAware ADS-B
Tue 08:40:50 AM 29.2705 -81.0636 185° South 396 456 14,200 -1,904 Descending FlightAware ADS-B
Tue 08:42:31 AM 29.0951 -81.0814 185° South 358 412 11,800 -1,021 Descending FlightAware ADS-B
Tue 08:43:11 AM 29.0339 -81.0876 185° South 314 361 11,800  Level FlightAware ADS-B
Tue 08:43:31 AM 29.0030 -81.0875 173° South 303 349 11,800 -885 Level FlightAware ADS-B
Tue 08:44:12 AM 28.9481 -81.0786 171° South 298 343 10,900 -1,333 Descending FlightAware ADS-B
Tue 08:44:52 AM 28.8943 -81.0694 172° South 294 338 10,000 -1,500 Descending FlightAware ADS-B
Tue 08:45:12 AM 28.8857 -81.0680 174° South 288 331 9,400 -2,100 Descending FlightAware ADS-B
Tue 08:45:52 AM 28.8179 -81.0808 202° Southwest 274 315 7,900 -2,361 Descending FlightAware ADS-B
Tue 08:46:13 AM 28.7924 -81.0923 202° Southwest 273 314 7,000 -2,400 Descending FlightAware ADS-B (KSFB)
Tue 08:46:32 AM 28.7740 -81.1082 233° Southwest 269 310 6,300 -1,784 Descending FlightAware ADS-B
Tue 08:46:50 AM 28.7623 -81.1259 233° Southwest 265 305 5,900 -698 Descending FlightAware ADS-B
Tue 08:47:15 AM 28.7422 -81.1557 232° Southwest 267 307 5,800 -286 Descending FlightAware ADS-B (KSFB)
Tue 08:47:32 AM 28.7301 -81.1734 232° Southwest 264 304 5,700 -1,000 Descending FlightAware ADS-B
Tue 08:47:51 AM 28.7151 -81.1953 232° Southwest 262 302 5,200 -1,756 Descending FlightAware ADS-B
Tue 08:48:13 AM 28.6988 -81.2189 232° Southwest 260 299 4,500 -1,946 Descending FlightAware ADS-B (KSFB)
Tue 08:48:28 AM 28.6875 -81.2353 232° Southwest 260 299 4,000 -2,069 Descending FlightAware ADS-B
Tue 08:48:42 AM 28.6763 -81.2506 226° Southwest 261 300 3,500 -1,800 Descending FlightAware ADS-B (KSFB)
Tue 08:48:58 AM 28.6627 -81.2642 218° Southwest 264 304 3,100 -1,125 Descending FlightAware ADS-B
Tue 08:49:14 AM 28.6481 -81.2769 215° Southwest 254 292 2,900 -750 Descending FlightAware ADS-B (KSFB)
Tue 08:49:22 AM 28.6407 -81.2823 208° Southwest 251 289 2,800 -800 Descending FlightAware ADS-B (KSFB)
Tue 08:49:44 AM 28.6153 -81.2966 205° Southwest 249 287 2,500 -774 Descending FlightAware ADS-B (KSFB)
Tue 08:49:53 AM 28.6078 -81.3006 206° Southwest 245 282 2,400 -414 Descending FlightAware ADS-B (KSFB)
Tue 08:50:13 AM 28.5865 -81.3121 205° Southwest 227 261 2,300 -150 Descending FlightAware ADS-B
Tue 08:50:33 AM 28.5692 -81.3213 205° Southwest 201 231 2,300  Level FlightAware ADS-B
Tue 08:50:44 AM 28.5650 -81.3231 193° South 185 213 2,300 -450 Level FlightAware ADS-B (KSFB)
Tue 08:51:13 AM 28.5368 -81.3274 183° South 165 190 2,000 -1,011 Descending FlightAware ADS-B
Tue 08:52:13 AM 28.4932 -81.3274 179° South 143 165 800 -1,050 Descending FlightAware ADS-B
Tue 08:52:33 AM 28.4808 -81.3273 180° South 141 162 600 -769 Descending FlightAware ADS-B
Tue 08:52:52 AM 28.4676 -81.3271 179° South 137 158 300 -750 Descending FlightAware ADS-B
Tue 08:53:13 AM 28.4545 -81.3270 180° South 138 159 100 -571 Descending FlightAware ADS-B

Login

Don't have an account? Register now (free) for customized features, flight alerts, and more!